Stone Mountain, Georgia
Current Conditions -  °F | °C
As of 11:53 AM on Friday 24 Oct 2014 (Local Time) from KPDK Reporting Station
Clear Clear  
Wind Chill: 66°   Ceiling: Unl
Heat Index: 66°   Visibility: 8mi
Dew Point: 47°   Wind: 3mph
Humidity: 50%   Direction: NA
Pressure: 30.07"   Gusts: NA
Location:  33.8°N, 84.17°W
Report Text: KPDK 241553Z VRB03KT 8SM CLR 19/08 A3007 RMK AO2 SLP180 T01890083
Loading
Personal Weather Stations






























Interactive Weather Map
Tropical Storm Tracking
New forecast layout! Learn more

10-Day Weather Forecast

Advertisements
Track Severe Weather on mobile